Allentown, NJ

1:38 AM EST on November 24, 2014 (GMT -0500)
West Acres | Change Station
CLOSE
Current Station
Personal Weather Station
Location: Yardville, NJ
Elevation: 125 ft
Nearby Weather Stations

Elev 125 ft 40.16 °N, 74.60 °W | Updated 8 minutes ago

Overcast
Overcast
56.1 °F
Feels Like 56.1 °F
N
5.0
Wind Variable Wind from SE
Gusts 10.0 mph

Today
High -- | Low -- °F
--% Chance of Precip.
Yesterday
High -- | Low -- °F
Precip. -- in
6:53 AM 4:35 PM
Waxing Crescent, 4% visible
Pressure 29.83 in
Visibility 5.0 miles
Clouds Overcast 500 ft
Dew Point 54 °F
Humidity 94%
Rainfall 0.00 in
Snow Depth Not available.
UV 0 out of 12
Pollen .10 out of 12
Air Quality Not available.
Flu Activity Not available.
SPECI KWRI 240633Z AUTO 14008KT 5SM R24/4500FT -RA BR OVC005 14/14 A2983 RMK AO2 RAB0623 OVC V BKN

More Conditions Fewer Conditions

Pressure 29.83 in
Visibility 5.0 miles
Clouds Overcast 500 ft
Dew Point 54 °F
Humidity 94%
Rainfall 0.00 in
Snow Depth Not available.
UV 0 out of 12
Pollen .10 out of 12
Air Quality Not available.
Flu Activity Not available.
SPECI KWRI 240633Z AUTO 14008KT 5SM R24/4500FT -RA BR OVC005 14/14 A2983 RMK AO2 RAB0623 OVC V BKN

More Conditions Fewer Conditions

Nowcast | as of 12:58 am EST on November 24, 2014

A band of light to moderate rain will slide northeast over the region through 5 am EST. Rain amounts with this band should be a quarter of an inch or less. At 1 am EST, the front edge of the band was roughly along a line from Mount Pocono to Cape May, and should move into northeastern New Jersey before 3 am EST.

×

10-Day Weather Forecast

Almanac

Astronomy

Nov. 24, 2014 Rise Set
Actual Time
Civil Twilight
Nautical Twilight
Astronomical Twilight
Moon
Length of Visible Light
Length of Day
Tomorrow will be .
, % of the Moon is Illuminated

Today's Extremes

State Highs State Lows

Community

WunderPhotos

Upload Photos

1,773,286 photos uploaded!

WunderBlogs® & News

Nearby

Air Quality

  Air Quality AQ Index Pollutant
Not available.

Snow Depth

Station Depth Elevation

Earthquake Activity

City Distance Mag. Time & Date
Minimum magnitude displayed is 2.5.

Coastal Water Temperatures

Place Temperature

Nearby Weather Stations